Terminal Aerodrome Forecast
Issued by NWS

Home | Current Version | Previous Version | Text Only | Print | Product List | Glossary On
Versions: 1 2 3 4 5 6 7 8 9 10 11 12 13 14 15 16 17 18 19
448
FTUS42 KJAX 060317 AAA
TAFVQQ
TAF AMD
KVQQ 060317Z 0603/0624 VRB03KT P6SM FEW025 BKN035 OVC045
     FM060500 18005KT P6SM VCSH SCT015 BKN025
     FM060800 19010G15KT 5SM RA SCT007 OVC015
     FM061000 20011G16KT 4SM BR SCT004 OVC007
      TEMPO 0610/0614 2SM -TSRA BKN004 OVC015CB
     FM061400 22013G18KT P6SM -RA SCT015 OVC025
      TEMPO 0614/0618 2SM -TSRA OVC015CB
     FM061800 24017G23KT P6SM SCT025 BKN050=

USA.gov is the U.S. government's official web portal to all federal, state and local government web resources and services.